UAL429 KSAN-KLAX
Flight info
| Callsign | UAL429 |
|---|---|
| Flight time | 0h 23m |
| Altitude | 10000 |
| Route | KSAN CWARD2 SLI |
| Aircraft | B738/M-G/C |
Departure
| Time | 2026-04-21 01:57 |
|---|---|
| Airport | San Diego International Airport (KSAN) |
Arrival
| Time | 2026-04-21 02:20 |
|---|---|
| Airport | Los Angeles International Airport (KLAX) |
| Time | Latitude | Longitude | Altitude | Speed | Heading |
|---|---|---|---|---|---|
| 2026-04-21 01:32 | 32.73338 | -117.20183 | 22 ft | 0 kts | 84° |
| 2026-04-21 01:42 | 32.73336 | -117.20199 | 22 ft | 3 kts | 84° |
| 2026-04-21 01:42 | 32.73334 | -117.20228 | 22 ft | 3 kts | 84° |
| 2026-04-21 01:43 | 32.73331 | -117.20259 | 22 ft | 3 kts | 84° |
| 2026-04-21 01:43 | 32.73328 | -117.20290 | 22 ft | 3 kts | 84° |
| 2026-04-21 01:43 | 32.73328 | -117.20300 | 22 ft | 0 kts | 84° |
| 2026-04-21 01:48 | 32.73328 | -117.20299 | 22 ft | 1 kts | 82° |
| 2026-04-21 01:48 | 32.73343 | -117.20290 | 22 ft | 6 kts | 13° |
| 2026-04-21 01:48 | 32.73412 | -117.20272 | 22 ft | 13 kts | 12° |
| 2026-04-21 01:49 | 32.73525 | -117.20228 | 22 ft | 18 kts | 46° |
| 2026-04-21 01:49 | 32.73523 | -117.20063 | 22 ft | 22 kts | 105° |
| 2026-04-21 01:49 | 32.73468 | -117.19867 | 22 ft | 28 kts | 105° |
| 2026-04-21 01:49 | 32.73415 | -117.19617 | 24 ft | 33 kts | 107° |
| 2026-04-21 01:50 | 32.73341 | -117.19331 | 25 ft | 39 kts | 104° |
| 2026-04-21 01:50 | 32.73258 | -117.18996 | 24 ft | 45 kts | 105° |
| 2026-04-21 01:50 | 32.73167 | -117.18613 | 22 ft | 50 kts | 107° |
| 2026-04-21 01:50 | 32.73072 | -117.18227 | 22 ft | 46 kts | 108° |
| 2026-04-21 01:51 | 32.73001 | -117.17943 | 23 ft | 26 kts | 105° |
| 2026-04-21 01:51 | 32.72961 | -117.17778 | 26 ft | 8 kts | 106° |
| 2026-04-21 01:51 | 32.72948 | -117.17710 | 27 ft | 8 kts | 97° |
| 2026-04-21 01:51 | 32.72949 | -117.17684 | 27 ft | 0 kts | 82° |
| 2026-04-21 01:52 | 32.72950 | -117.17680 | 27 ft | 0 kts | 82° |
| 2026-04-21 01:55 | 32.72956 | -117.17644 | 28 ft | 10 kts | 71° |
| 2026-04-21 01:55 | 32.73007 | -117.17602 | 29 ft | 6 kts | 0° |
| 2026-04-21 01:55 | 32.73034 | -117.17647 | 29 ft | 6 kts | 289° |
| 2026-04-21 01:56 | 32.73037 | -117.17658 | 29 ft | 0 kts | 288° |
| 2026-04-21 01:56 | 32.73038 | -117.17660 | 29 ft | 2 kts | 288° |
| 2026-04-21 01:56 | 32.73108 | -117.17947 | 25 ft | 77 kts | 282° |
| 2026-04-21 01:57 | 32.73320 | -117.18849 | 25 ft | 144 kts | 289° |
| 2026-04-21 01:57 | 32.73645 | -117.20114 | 258 ft | 173 kts | 287° |
| 2026-04-21 01:57 | 32.74096 | -117.21504 | 905 ft | 192 kts | 295° |
| 2026-04-21 01:57 | 32.74815 | -117.22838 | 1792 ft | 196 kts | 307° |
| 2026-04-21 01:58 | 32.75666 | -117.24205 | 2171 ft | 218 kts | 304° |
| 2026-04-21 01:58 | 32.76554 | -117.25769 | 2601 ft | 239 kts | 303° |
| 2026-04-21 01:58 | 32.77509 | -117.27470 | 3097 ft | 257 kts | 303° |
| 2026-04-21 01:58 | 32.78518 | -117.29275 | 3828 ft | 264 kts | 303° |
| 2026-04-21 01:59 | 32.79522 | -117.31078 | 4578 ft | 269 kts | 303° |
| 2026-04-21 01:59 | 32.80623 | -117.32883 | 5358 ft | 273 kts | 307° |
| 2026-04-21 01:59 | 32.81802 | -117.34676 | 6124 ft | 276 kts | 307° |
| 2026-04-21 01:59 | 32.82967 | -117.36482 | 6842 ft | 280 kts | 306° |
| 2026-04-21 02:00 | 32.84148 | -117.38322 | 7535 ft | 285 kts | 306° |
| 2026-04-21 02:00 | 32.85360 | -117.40196 | 8217 ft | 290 kts | 306° |
| 2026-04-21 02:00 | 32.86593 | -117.42097 | 8884 ft | 294 kts | 305° |
| 2026-04-21 02:00 | 32.87843 | -117.44043 | 9550 ft | 298 kts | 305° |
| 2026-04-21 02:01 | 32.89121 | -117.46042 | 9812 ft | 308 kts | 305° |
| 2026-04-21 02:01 | 32.90417 | -117.48057 | 9836 ft | 301 kts | 306° |
| 2026-04-21 02:01 | 32.91676 | -117.50007 | 9836 ft | 303 kts | 305° |
| 2026-04-21 02:01 | 32.93008 | -117.52084 | 9854 ft | 323 kts | 305° |
| 2026-04-21 02:02 | 32.94418 | -117.54287 | 9827 ft | 349 kts | 306° |
| 2026-04-21 02:02 | 32.95919 | -117.56623 | 9826 ft | 358 kts | 306° |
| 2026-04-21 02:02 | 32.97423 | -117.58955 | 9831 ft | 354 kts | 306° |
| 2026-04-21 02:02 | 32.98930 | -117.61301 | 9823 ft | 354 kts | 306° |
| 2026-04-21 02:03 | 33.00416 | -117.63625 | 9825 ft | 355 kts | 306° |
| 2026-04-21 02:03 | 33.01906 | -117.65953 | 9833 ft | 355 kts | 305° |
| 2026-04-21 02:03 | 33.03415 | -117.68309 | 9826 ft | 356 kts | 305° |
| 2026-04-21 02:03 | 33.04917 | -117.70654 | 9819 ft | 356 kts | 305° |
| 2026-04-21 02:04 | 33.06467 | -117.72929 | 9804 ft | 358 kts | 312° |
| 2026-04-21 02:04 | 33.08318 | -117.74923 | 9829 ft | 360 kts | 318° |
| 2026-04-21 02:04 | 33.10246 | -117.76833 | 9822 ft | 360 kts | 318° |
| 2026-04-21 02:04 | 33.12167 | -117.78793 | 9822 ft | 360 kts | 317° |
| 2026-04-21 02:05 | 33.14047 | -117.80735 | 9829 ft | 360 kts | 317° |
| 2026-04-21 02:05 | 33.15957 | -117.82686 | 9833 ft | 359 kts | 318° |
| 2026-04-21 02:05 | 33.17865 | -117.84609 | 9832 ft | 359 kts | 319° |
| 2026-04-21 02:05 | 33.19981 | -117.86191 | 9832 ft | 361 kts | 336° |
| 2026-04-21 02:06 | 33.22386 | -117.87000 | 9838 ft | 363 kts | 348° |
| 2026-04-21 02:06 | 33.24890 | -117.87552 | 9834 ft | 362 kts | 348° |
| 2026-04-21 02:06 | 33.27364 | -117.88156 | 9835 ft | 362 kts | 347° |
| 2026-04-21 02:06 | 33.29817 | -117.88780 | 9822 ft | 361 kts | 347° |
| 2026-04-21 02:07 | 33.32290 | -117.89400 | 9828 ft | 356 kts | 347° |
| 2026-04-21 02:07 | 33.34640 | -117.89981 | 9826 ft | 339 kts | 347° |
| 2026-04-21 02:07 | 33.36890 | -117.90540 | 9825 ft | 321 kts | 347° |
| 2026-04-21 02:07 | 33.39026 | -117.91104 | 9829 ft | 305 kts | 344° |
| 2026-04-21 02:08 | 33.41049 | -117.91820 | 9840 ft | 305 kts | 340° |
| 2026-04-21 02:08 | 33.43082 | -117.92603 | 9834 ft | 307 kts | 341° |
| 2026-04-21 02:08 | 33.45120 | -117.93350 | 9827 ft | 306 kts | 342° |
| 2026-04-21 02:08 | 33.47159 | -117.94090 | 9828 ft | 307 kts | 342° |
| 2026-04-21 02:09 | 33.49210 | -117.94836 | 9833 ft | 308 kts | 342° |
| 2026-04-21 02:09 | 33.51294 | -117.95544 | 9834 ft | 307 kts | 343° |
| 2026-04-21 02:09 | 33.53341 | -117.96222 | 9832 ft | 306 kts | 343° |
| 2026-04-21 02:09 | 33.55406 | -117.96906 | 9831 ft | 307 kts | 343° |
| 2026-04-21 02:10 | 33.57450 | -117.97581 | 9829 ft | 307 kts | 343° |
| 2026-04-21 02:10 | 33.59536 | -117.98269 | 9824 ft | 307 kts | 343° |
| 2026-04-21 02:10 | 33.61583 | -117.98945 | 9829 ft | 306 kts | 343° |
| 2026-04-21 02:10 | 33.63631 | -117.99622 | 9824 ft | 306 kts | 343° |
| 2026-04-21 02:11 | 33.65689 | -118.00302 | 9821 ft | 307 kts | 343° |
| 2026-04-21 02:11 | 33.67753 | -118.00990 | 9818 ft | 302 kts | 343° |
| 2026-04-21 02:11 | 33.69734 | -118.01650 | 9828 ft | 293 kts | 343° |
| 2026-04-21 02:11 | 33.71733 | -118.02318 | 9666 ft | 297 kts | 343° |
| 2026-04-21 02:12 | 33.73718 | -118.02988 | 9312 ft | 294 kts | 343° |
| 2026-04-21 02:12 | 33.75656 | -118.03642 | 8936 ft | 287 kts | 343° |
| 2026-04-21 02:12 | 33.77557 | -118.04282 | 8574 ft | 279 kts | 343° |
| 2026-04-21 02:12 | 33.79382 | -118.04894 | 8201 ft | 267 kts | 343° |
| 2026-04-21 02:13 | 33.81129 | -118.05486 | 7806 ft | 259 kts | 343° |
| 2026-04-21 02:13 | 33.82864 | -118.06075 | 7392 ft | 253 kts | 343° |
| 2026-04-21 02:13 | 33.84522 | -118.06642 | 6989 ft | 247 kts | 343° |
| 2026-04-21 02:13 | 33.86157 | -118.07204 | 6573 ft | 243 kts | 343° |
| 2026-04-21 02:14 | 33.87783 | -118.07768 | 6116 ft | 241 kts | 343° |
| 2026-04-21 02:14 | 33.89393 | -118.08328 | 5651 ft | 239 kts | 343° |
| 2026-04-21 02:14 | 33.90972 | -118.08875 | 5194 ft | 237 kts | 343° |
| 2026-04-21 02:14 | 33.92548 | -118.09421 | 4730 ft | 235 kts | 343° |
| 2026-04-21 02:15 | 33.94123 | -118.09970 | 4262 ft | 233 kts | 343° |
| 2026-04-21 02:15 | 33.95658 | -118.10509 | 3804 ft | 231 kts | 343° |
| 2026-04-21 02:15 | 33.97194 | -118.11056 | 3338 ft | 228 kts | 341° |
| 2026-04-21 02:15 | 33.98535 | -118.11993 | 2911 ft | 222 kts | 312° |
| 2026-04-21 02:16 | 33.99190 | -118.13579 | 2804 ft | 207 kts | 276° |
| 2026-04-21 02:16 | 33.99030 | -118.15217 | 2800 ft | 195 kts | 255° |
| 2026-04-21 02:16 | 33.98669 | -118.16810 | 2800 ft | 196 kts | 254° |
| 2026-04-21 02:16 | 33.98284 | -118.18385 | 2801 ft | 197 kts | 252° |
| 2026-04-21 02:17 | 33.97662 | -118.19833 | 2796 ft | 196 kts | 230° |
| 2026-04-21 02:17 | 33.96821 | -118.21133 | 2779 ft | 198 kts | 239° |
| 2026-04-21 02:17 | 33.96138 | -118.22575 | 2788 ft | 197 kts | 240° |
| 2026-04-21 02:17 | 33.95456 | -118.24025 | 2590 ft | 202 kts | 240° |
| 2026-04-21 02:18 | 33.95011 | -118.25598 | 2234 ft | 200 kts | 264° |
| 2026-04-21 02:18 | 33.94859 | -118.27249 | 1927 ft | 195 kts | 261° |
| 2026-04-21 02:18 | 33.94694 | -118.28831 | 1663 ft | 192 kts | 263° |
| 2026-04-21 02:18 | 33.94530 | -118.30431 | 1401 ft | 190 kts | 263° |
| 2026-04-21 02:19 | 33.94374 | -118.31982 | 1155 ft | 180 kts | 262° |
| 2026-04-21 02:19 | 33.94231 | -118.33398 | 923 ft | 160 kts | 262° |
| 2026-04-21 02:19 | 33.94103 | -118.34653 | 714 ft | 148 kts | 262° |
| 2026-04-21 02:19 | 33.93977 | -118.35881 | 527 ft | 146 kts | 262° |
| 2026-04-21 02:20 | 33.93847 | -118.37163 | 396 ft | 163 kts | 262° |
| 2026-04-21 02:20 | 33.93716 | -118.38531 | 138 ft | 157 kts | 261° |
| 2026-04-21 02:20 | 33.93589 | -118.39686 | 111 ft | 116 kts | 259° |
| 2026-04-21 02:20 | 33.93531 | -118.40338 | 121 ft | 48 kts | 277° |
| 2026-04-21 02:21 | 33.93580 | -118.40598 | 125 ft | 24 kts | 289° |
| 2026-04-21 02:21 | 33.93601 | -118.40786 | 126 ft | 21 kts | 273° |
| 2026-04-21 02:21 | 33.93662 | -118.40891 | 127 ft | 13 kts | 348° |
| 2026-04-21 02:21 | 33.93733 | -118.40904 | 127 ft | 8 kts | 354° |
| 2026-04-21 02:22 | 33.93754 | -118.40906 | 127 ft | 0 kts | 354° |
| 2026-04-21 02:22 | 33.93759 | -118.40906 | 127 ft | 0 kts | 355° |
| 2026-04-21 02:22 | 33.93773 | -118.40899 | 127 ft | 5 kts | 32° |
| 2026-04-21 02:22 | 33.93797 | -118.40831 | 127 ft | 13 kts | 77° |
| 2026-04-21 02:23 | 33.93813 | -118.40692 | 127 ft | 20 kts | 84° |
| 2026-04-21 02:23 | 33.93830 | -118.40482 | 123 ft | 29 kts | 85° |
| 2026-04-21 02:23 | 33.93854 | -118.40205 | 120 ft | 35 kts | 83° |
| 2026-04-21 02:23 | 33.93890 | -118.39947 | 116 ft | 27 kts | 80° |
| 2026-04-21 02:24 | 33.93954 | -118.39821 | 114 ft | 14 kts | 354° |
| 2026-04-21 02:24 | 33.94041 | -118.39819 | 114 ft | 6 kts | 29° |
| 2026-04-21 02:24 | 33.94054 | -118.39797 | 113 ft | 3 kts | 69° |
| 2026-04-21 02:24 | 33.94059 | -118.39775 | 113 ft | 0 kts | 78° |